Terminal Aerodrome Forecast
Issued by NWS

Home | Current Version | Previous Version | Text Only | Print | Product List | Glossary On
Versions: 1 2 3 4 5 6 7 8 9 10 11 12 13 14 15
000
FTUS45 KRIW 230534
TAFBPI
TAF
KBPI 230534Z 2306/2406 VRB05KT 4SM -SN OVC030
     FM231500 36006KT P6SM BKN060
     FM240000 34009KT P6SM SCT090=

USA.gov is the U.S. government's official web portal to all federal, state and local government web resources and services.